createdAt,value
2023-02-05T00:02:00.897Z,43.58
2023-02-05T00:04:30.672Z,42.92
2023-02-05T00:06:58.884Z,42.92
2023-02-05T00:09:28.556Z,42.33
2023-02-05T00:11:56.809Z,40.10
2023-02-05T00:14:25.350Z,42.60
2023-02-05T00:16:53.796Z,45.28
2023-02-05T00:19:22.219Z,43.15
2023-02-05T00:21:51.907Z,44.33
2023-02-05T00:24:20.274Z,40.72
2023-02-05T00:26:48.534Z,40.53
2023-02-05T00:29:16.757Z,42.53
2023-02-05T00:31:45.189Z,40.28
2023-02-05T00:34:13.664Z,38.20
2023-02-05T00:36:41.938Z,39.05
2023-02-05T00:39:14.358Z,38.50
2023-02-05T00:41:42.616Z,36.58
2023-02-05T00:44:10.872Z,34.80
2023-02-05T00:46:39.395Z,35.95
2023-02-05T00:49:08.293Z,35.30
2023-02-05T00:51:36.473Z,36.05
2023-02-05T00:54:04.853Z,41.55
2023-02-05T00:56:34.624Z,36.65
2023-02-05T00:59:03.273Z,40.40
2023-02-05T01:01:31.828Z,36.25
2023-02-05T01:04:00.213Z,34.53
2023-02-05T01:06:28.461Z,33.05
2023-02-05T01:08:57.065Z,31.48
2023-02-05T01:11:25.532Z,31.05
2023-02-05T01:13:55.162Z,30.27
2023-02-05T01:16:23.494Z,33.90
2023-02-05T01:18:53.180Z,30.75
2023-02-05T01:21:21.499Z,30.08
2023-02-05T01:23:49.976Z,31.00
2023-02-05T01:26:18.382Z,29.75
2023-02-05T01:28:47.204Z,28.30
2023-02-05T01:31:17.288Z,24.95
2023-02-05T01:33:45.789Z,30.33
2023-02-05T01:36:14.178Z,27.70
2023-02-05T01:38:42.527Z,26.90
2023-02-05T01:41:12.354Z,25.63
2023-02-05T01:43:40.769Z,25.10
2023-02-05T01:46:25.625Z,24.50
2023-02-05T01:48:55.092Z,24.08
2023-02-05T01:51:23.218Z,25.27
2023-02-05T01:53:51.335Z,22.85
2023-02-05T01:56:22.292Z,23.85
2023-02-05T01:58:52.760Z,23.88
2023-02-05T02:01:20.959Z,23.67
2023-02-05T02:03:50.870Z,22.02
2023-02-05T02:06:19.109Z,23.38
2023-02-05T02:08:47.238Z,23.08
2023-02-05T02:11:17.247Z,22.60
2023-02-05T02:13:45.678Z,23.40
2023-02-05T02:16:13.804Z,21.52
2023-02-05T02:18:42.388Z,22.23
2023-02-05T02:21:45.828Z,22.92
2023-02-05T02:24:35.636Z,22.50
2023-02-05T02:27:12.806Z,23.35
2023-02-05T02:29:44.357Z,22.17
2023-02-05T02:32:15.601Z,20.75
2023-02-05T02:34:46.285Z,20.80
2023-02-05T02:37:16.174Z,21.80
2023-02-05T02:39:46.031Z,22.13
2023-02-05T02:42:16.512Z,19.30
2023-02-05T02:44:47.884Z,19.63
2023-02-05T02:47:17.645Z,17.83
2023-02-05T02:49:48.450Z,18.25
2023-02-05T02:52:17.801Z,18.90
2023-02-05T02:54:47.894Z,18.20
2023-02-05T02:57:17.981Z,18.30
2023-02-05T02:59:47.559Z,19.20
2023-02-05T03:02:17.024Z,19.52
2023-02-05T03:04:46.898Z,19.05
2023-02-05T03:07:17.621Z,17.75
2023-02-05T03:09:50.260Z,18.30
2023-02-05T03:12:19.714Z,19.48
2023-02-05T03:14:49.170Z,17.17
2023-02-05T03:17:19.808Z,21.17
2023-02-05T03:19:51.924Z,16.45
2023-02-05T03:22:20.300Z,18.58
2023-02-05T03:24:48.348Z,18.00
2023-02-05T03:27:16.531Z,19.88
2023-02-05T03:29:45.696Z,22.52
2023-02-05T03:32:25.902Z,17.05
2023-02-05T03:35:00.699Z,17.00
2023-02-05T03:37:34.056Z,18.67
2023-02-05T03:40:08.342Z,19.10
2023-02-05T03:42:41.238Z,16.35
2023-02-05T03:45:23.016Z,17.73
2023-02-05T03:48:05.660Z,17.40
2023-02-05T03:50:37.292Z,15.75
2023-02-05T03:53:07.908Z,16.63
2023-02-05T03:55:39.416Z,17.52
2023-02-05T03:58:09.984Z,15.90
2023-02-05T04:00:38.177Z,16.48
2023-02-05T04:03:07.653Z,15.13
2023-02-05T04:05:37.457Z,14.65
2023-02-05T04:08:06.289Z,13.98
2023-02-05T04:10:41.329Z,13.60
2023-02-05T04:13:10.518Z,11.73
2023-02-05T04:15:40.489Z,14.45
2023-02-05T04:18:12.430Z,12.32
2023-02-05T04:20:40.738Z,13.77
2023-02-05T04:23:10.414Z,13.23
2023-02-05T04:25:40.158Z,13.60
2023-02-05T04:28:11.527Z,14.93
2023-02-05T04:30:40.643Z,12.82
2023-02-05T04:33:13.160Z,14.25
2023-02-05T04:35:41.989Z,12.80
2023-02-05T04:38:10.533Z,14.43
2023-02-05T04:40:38.889Z,11.77
2023-02-05T04:43:07.217Z,12.30
2023-02-05T04:45:37.062Z,13.25
2023-02-05T04:48:06.761Z,13.45
2023-02-05T04:50:36.416Z,12.23
2023-02-05T04:53:04.643Z,14.68
2023-02-05T04:55:33.308Z,12.55
2023-02-05T04:58:01.597Z,12.90
2023-02-05T05:00:29.662Z,12.57
2023-02-05T05:02:58.253Z,15.63
2023-02-05T05:05:26.285Z,11.82
2023-02-05T05:07:55.804Z,12.13
2023-02-05T05:10:23.870Z,12.98
2023-02-05T05:12:53.231Z,12.38
2023-02-05T05:15:21.368Z,10.68
2023-02-05T05:17:49.561Z,13.20
2023-02-05T05:20:18.280Z,11.93
2023-02-05T05:22:46.377Z,11.93
2023-02-05T05:25:16.049Z,11.30
2023-02-05T05:27:44.240Z,10.77
2023-02-05T05:30:13.560Z,12.32
2023-02-05T05:32:41.674Z,10.93
2023-02-05T05:35:09.974Z,12.90
2023-02-05T05:37:38.098Z,11.10
2023-02-05T05:40:24.339Z,12.43
2023-02-05T05:43:11.136Z,11.82
2023-02-05T05:45:39.277Z,11.10
2023-02-05T05:48:09.097Z,10.15
2023-02-05T05:50:37.282Z,14.27
2023-02-05T05:53:05.421Z,16.30
2023-02-05T05:55:33.811Z,12.35
2023-02-05T05:58:03.361Z,9.95
2023-02-05T06:00:31.519Z,9.48
2023-02-05T06:02:59.688Z,13.95
2023-02-05T06:05:27.781Z,15.25
2023-02-05T06:07:55.829Z,11.38
2023-02-05T06:10:24.344Z,10.73
2023-02-05T06:12:53.156Z,12.98
2023-02-05T06:15:23.180Z,8.82
2023-02-05T06:17:51.371Z,10.35
2023-02-05T06:20:19.909Z,9.27
2023-02-05T06:22:48.262Z,12.30
2023-02-05T06:25:17.260Z,8.75
2023-02-05T06:27:48.302Z,9.18
2023-02-05T06:30:16.663Z,10.20
2023-02-05T06:32:46.531Z,9.38
2023-02-05T06:35:15.012Z,8.50
2023-02-05T06:37:47.537Z,9.90
2023-02-05T06:40:18.357Z,8.40
2023-02-05T06:42:46.833Z,8.70
2023-02-05T06:45:16.024Z,7.53
2023-02-05T06:47:46.216Z,9.98
2023-02-05T06:50:14.553Z,9.10
2023-02-05T06:52:42.677Z,8.05
2023-02-05T06:55:10.897Z,9.55
2023-02-05T06:57:39.017Z,8.32
2023-02-05T07:00:08.247Z,7.47
2023-02-05T07:02:36.421Z,12.15
2023-02-05T07:05:05.987Z,7.32
2023-02-05T07:07:34.465Z,8.13
2023-02-05T07:10:02.498Z,7.22
2023-02-05T07:12:30.718Z,9.82
2023-02-05T07:14:58.803Z,9.50
2023-02-05T07:17:27.176Z,13.88
2023-02-05T07:19:55.337Z,11.60
2023-02-05T07:22:24.897Z,13.45
2023-02-05T07:24:53.085Z,14.13
2023-02-05T07:27:21.148Z,15.82
2023-02-05T07:29:49.392Z,16.63
2023-02-05T07:32:17.620Z,18.70
2023-02-05T07:34:45.764Z,22.73
2023-02-05T07:37:14.349Z,22.80
2023-02-05T07:39:43.819Z,28.45
2023-02-05T07:42:12.339Z,32.85
2023-02-05T07:44:52.123Z,30.13
2023-02-05T07:47:20.260Z,32.88
2023-02-05T07:49:48.355Z,33.60
2023-02-05T07:52:16.413Z,34.00
2023-02-05T07:54:45.863Z,31.50
2023-02-05T07:57:13.965Z,37.70
2023-02-05T07:59:42.005Z,31.02
2023-02-05T08:02:10.728Z,30.45
2023-02-05T08:04:38.761Z,32.40
2023-02-05T08:07:06.881Z,37.90
2023-02-05T08:09:34.934Z,35.63
2023-02-05T08:12:04.602Z,34.25
2023-02-05T08:14:32.835Z,39.92
2023-02-05T08:17:01.979Z,43.53
2023-02-05T08:19:30.260Z,44.92
2023-02-05T08:21:58.847Z,44.58
2023-02-05T08:24:27.366Z,40.90
2023-02-05T08:26:55.448Z,43.40
2023-02-05T08:29:26.506Z,41.83
2023-02-05T08:31:54.815Z,37.00
2023-02-05T08:34:22.869Z,39.35
2023-02-05T08:36:50.992Z,37.92
2023-02-05T08:39:19.008Z,37.38
2023-02-05T08:41:47.121Z,36.47
2023-02-05T08:44:15.176Z,37.67
2023-02-05T08:46:50.117Z,41.53
2023-02-05T08:49:18.897Z,33.85
2023-02-05T08:51:46.948Z,34.30
2023-02-05T08:54:15.529Z,36.83
2023-02-05T08:56:43.855Z,37.47
2023-02-05T08:59:12.308Z,46.22
2023-02-05T09:01:41.598Z,44.42
2023-02-05T09:04:12.605Z,44.08
2023-02-05T09:06:43.832Z,41.25
2023-02-05T09:09:12.159Z,43.38
2023-02-05T09:11:40.513Z,45.55
2023-02-05T09:14:08.722Z,49.17
2023-02-05T09:16:36.967Z,44.85
2023-02-05T09:19:05.442Z,45.17
2023-02-05T09:21:35.102Z,45.72
2023-02-05T09:24:03.560Z,42.10
2023-02-05T09:26:31.804Z,43.20
2023-02-05T09:29:00.048Z,46.53
2023-02-05T09:31:28.632Z,44.13
2023-02-05T09:33:57.444Z,46.80
2023-02-05T09:36:27.249Z,49.55
2023-02-05T09:39:13.472Z,48.95
2023-02-05T09:41:48.471Z,50.63
2023-02-05T09:44:18.804Z,47.65
2023-02-05T09:46:50.458Z,46.70
2023-02-05T09:49:19.712Z,49.25
2023-02-05T09:51:49.497Z,46.85
2023-02-05T09:54:20.829Z,47.45
2023-02-05T09:56:50.654Z,47.28
2023-02-05T09:59:21.064Z,49.60
2023-02-05T10:01:51.231Z,47.20
2023-02-05T10:04:19.627Z,45.40
2023-02-05T10:07:01.427Z,43.92
2023-02-05T10:09:41.210Z,44.25
2023-02-05T10:12:16.087Z,37.03
2023-02-05T10:14:49.896Z,36.60
2023-02-05T10:17:29.569Z,38.22
2023-02-05T10:20:15.657Z,37.25
2023-02-05T10:22:48.751Z,37.55
2023-02-05T10:25:36.504Z,36.08
2023-02-05T10:28:07.260Z,33.47
2023-02-05T10:30:38.140Z,32.97
2023-02-05T10:33:08.338Z,32.63
2023-02-05T10:35:42.458Z,32.35
2023-02-05T10:38:12.418Z,30.40
2023-02-05T10:40:44.117Z,31.55
2023-02-05T10:43:19.071Z,32.13
2023-02-05T10:45:47.152Z,28.30
2023-02-05T10:48:25.037Z,29.73
2023-02-05T10:50:56.512Z,28.75
2023-02-05T10:53:26.319Z,28.33
2023-02-05T10:55:55.762Z,28.23
2023-02-05T10:58:42.423Z,28.35
2023-02-05T11:01:15.005Z,26.48
2023-02-05T11:03:50.551Z,26.20
2023-02-05T11:06:18.693Z,25.75
2023-02-05T11:08:47.237Z,25.90
2023-02-05T11:11:23.315Z,23.75
2023-02-05T11:13:54.053Z,25.77
2023-02-05T11:16:22.241Z,24.63
2023-02-05T11:18:57.490Z,25.05
2023-02-05T11:21:25.684Z,25.15
2023-02-05T11:23:57.265Z,23.42
2023-02-05T11:26:28.148Z,23.17
2023-02-05T11:28:56.222Z,21.92
2023-02-05T11:31:26.532Z,21.50
2023-02-05T11:34:10.582Z,22.02
2023-02-05T11:36:39.342Z,21.13
2023-02-05T11:39:07.730Z,21.73
2023-02-05T11:41:49.246Z,20.50
2023-02-05T11:44:19.425Z,22.20
2023-02-05T11:46:47.642Z,21.40
2023-02-05T11:49:21.936Z,20.25
2023-02-05T11:51:54.220Z,19.80
2023-02-05T11:54:23.500Z,20.83
2023-02-05T11:57:03.646Z,19.23
2023-02-05T11:59:31.960Z,18.48
2023-02-05T12:02:28.523Z,17.55
2023-02-05T12:04:59.008Z,16.88
2023-02-05T12:07:27.203Z,20.10
2023-02-05T12:09:59.367Z,17.85
2023-02-05T12:12:31.824Z,21.05
2023-02-05T12:15:08.594Z,20.23
2023-02-05T12:17:41.428Z,20.92
2023-02-05T12:20:17.755Z,23.48
2023-02-05T12:23:07.659Z,21.90
2023-02-05T12:25:37.927Z,22.80
2023-02-05T12:28:18.047Z,23.08
2023-02-05T12:30:52.485Z,24.08
2023-02-05T12:33:29.976Z,23.33
2023-02-05T12:36:03.155Z,23.15
2023-02-05T12:38:39.348Z,23.38
2023-02-05T12:41:13.831Z,25.40
2023-02-05T12:43:45.229Z,25.52
2023-02-05T12:46:28.832Z,26.42
2023-02-05T12:49:06.386Z,27.48
2023-02-05T12:51:44.461Z,35.60
2023-02-05T12:54:25.888Z,31.75
2023-02-05T12:56:57.223Z,36.83
2023-02-05T12:59:32.976Z,36.13
2023-02-05T13:02:02.758Z,35.10
2023-02-05T13:04:33.808Z,36.72
2023-02-05T13:07:08.521Z,36.17
2023-02-05T13:09:40.304Z,35.30
2023-02-05T13:12:09.939Z,31.40
2023-02-05T13:14:40.866Z,32.00
2023-02-05T13:17:18.547Z,33.28
2023-02-05T13:19:48.440Z,30.80
2023-02-05T13:22:35.693Z,29.35
2023-02-05T13:25:30.071Z,30.80
2023-02-05T13:28:31.399Z,30.50
2023-02-05T13:31:01.365Z,31.85
2023-02-05T13:33:29.739Z,29.10
2023-02-05T13:36:01.728Z,28.33
2023-02-05T13:38:40.106Z,33.03
2023-02-05T13:41:26.766Z,30.50
2023-02-05T13:44:20.309Z,29.38
2023-02-05T13:47:24.065Z,28.08
2023-02-05T13:50:21.985Z,30.55
2023-02-05T13:53:23.146Z,31.80
2023-02-05T13:56:18.797Z,30.52
2023-02-05T13:58:47.238Z,27.48
2023-02-05T14:01:18.025Z,31.63
2023-02-05T14:03:56.303Z,26.52
2023-02-05T14:06:31.163Z,26.65
2023-02-05T14:09:04.061Z,28.80
2023-02-05T14:11:44.754Z,26.25
2023-02-05T14:14:32.010Z,31.88
2023-02-05T14:17:00.494Z,25.90
2023-02-05T14:19:44.253Z,24.17
2023-02-05T14:22:14.388Z,26.00
2023-02-05T14:24:49.858Z,27.45
2023-02-05T14:27:47.017Z,24.88
2023-02-05T14:30:47.596Z,24.40
2023-02-05T14:33:39.186Z,23.67
2023-02-05T14:36:33.276Z,22.38
2023-02-05T14:39:04.511Z,22.40
2023-02-05T14:41:36.084Z,23.80
2023-02-05T14:44:05.025Z,23.40
2023-02-05T14:46:35.589Z,24.25
2023-02-05T14:49:05.208Z,24.10
2023-02-05T14:51:40.340Z,22.85
2023-02-05T14:54:15.795Z,23.98
2023-02-05T14:56:46.878Z,26.58
2023-02-05T14:59:21.523Z,21.70
2023-02-05T15:01:54.469Z,23.02
2023-02-05T15:04:28.628Z,21.55
2023-02-05T15:06:57.368Z,21.60
2023-02-05T15:09:38.411Z,19.40
2023-02-05T15:12:22.320Z,21.90
2023-02-05T15:14:53.828Z,19.42
2023-02-05T15:17:44.884Z,20.05
2023-02-05T15:20:20.110Z,17.65
2023-02-05T15:22:50.981Z,16.98
2023-02-05T15:25:29.630Z,19.00
2023-02-05T15:27:59.207Z,17.70
2023-02-05T15:30:28.889Z,18.63
2023-02-05T15:33:00.396Z,20.63
2023-02-05T15:35:29.996Z,16.58
2023-02-05T15:37:59.996Z,16.67
2023-02-05T15:40:31.687Z,17.58
2023-02-05T15:43:01.241Z,14.90
2023-02-05T15:45:30.335Z,15.13
2023-02-05T15:48:00.384Z,15.05
2023-02-05T15:50:28.675Z,16.05
2023-02-05T15:52:57.073Z,14.80
2023-02-05T15:55:26.887Z,13.65
2023-02-05T15:57:57.587Z,16.48
2023-02-05T16:00:28.048Z,18.40
2023-02-05T16:02:57.512Z,15.40
2023-02-05T16:05:26.399Z,14.32
2023-02-05T16:07:58.265Z,15.52
2023-02-05T16:10:27.559Z,14.48
2023-02-05T16:13:01.247Z,15.73
2023-02-05T16:15:31.822Z,14.45
2023-02-05T16:18:00.039Z,15.65
2023-02-05T16:20:29.219Z,15.75
2023-02-05T16:22:58.205Z,14.55
2023-02-05T16:25:38.812Z,17.52
2023-02-05T16:28:19.308Z,15.25
2023-02-05T16:30:47.769Z,16.13
2023-02-05T16:33:22.314Z,15.57
2023-02-05T16:35:50.668Z,17.33
2023-02-05T16:38:20.009Z,17.17
2023-02-05T16:40:49.669Z,16.80
2023-02-05T16:43:21.900Z,18.80
2023-02-05T16:46:21.836Z,20.35
2023-02-05T16:48:51.075Z,19.75
2023-02-05T16:51:31.813Z,32.35
2023-02-05T16:54:00.846Z,26.35
2023-02-05T16:56:29.961Z,26.45
2023-02-05T16:59:02.625Z,25.40
2023-02-05T17:01:32.684Z,31.88
2023-02-05T17:04:00.886Z,30.95
2023-02-05T17:06:33.737Z,33.92
2023-02-05T17:09:01.954Z,27.00
2023-02-05T17:11:35.387Z,29.88
2023-02-05T17:14:23.408Z,27.02
2023-02-05T17:16:55.645Z,26.92
2023-02-05T17:19:25.215Z,25.90
2023-02-05T17:22:23.280Z,27.48
2023-02-05T17:24:52.106Z,31.92
2023-02-05T17:27:23.336Z,33.28
2023-02-05T17:29:54.304Z,33.10
2023-02-05T17:32:22.747Z,37.30
2023-02-05T17:34:51.025Z,43.20
2023-02-05T17:37:19.481Z,43.72
2023-02-05T17:39:47.722Z,43.35
2023-02-05T17:42:22.838Z,44.17
2023-02-05T17:44:53.264Z,46.45
2023-02-05T17:47:21.476Z,43.85
2023-02-05T17:49:49.712Z,47.42
2023-02-05T17:52:18.223Z,47.17
2023-02-05T17:54:46.625Z,43.38
2023-02-05T17:57:17.216Z,48.78
2023-02-05T17:59:48.262Z,43.80
2023-02-05T18:02:18.105Z,46.75
2023-02-05T18:04:47.006Z,40.40
2023-02-05T18:07:19.934Z,46.13
2023-02-05T18:09:48.120Z,39.47
2023-02-05T18:12:16.310Z,37.78
2023-02-05T18:14:44.480Z,37.95
2023-02-05T18:17:12.649Z,38.28
2023-02-05T18:19:42.304Z,34.67
2023-02-05T18:22:10.629Z,36.67
2023-02-05T18:24:39.307Z,34.50
2023-02-05T18:27:08.685Z,42.05
2023-02-05T18:29:36.986Z,36.30
2023-02-05T18:32:05.127Z,37.67
2023-02-05T18:34:33.378Z,35.85
2023-02-05T18:37:02.983Z,36.80
2023-02-05T18:39:31.560Z,40.08
2023-02-05T18:42:00.157Z,39.97
2023-02-05T18:44:28.691Z,38.88
2023-02-05T18:46:56.813Z,45.67
2023-02-05T18:49:25.060Z,42.45
2023-02-05T18:51:53.258Z,45.00
2023-02-05T18:54:22.776Z,42.20
2023-02-05T18:56:51.885Z,49.40
2023-02-05T18:59:21.308Z,42.92
2023-02-05T19:01:49.601Z,43.47
2023-02-05T19:04:18.706Z,51.95
2023-02-05T19:06:50.713Z,48.55
2023-02-05T19:09:19.566Z,50.10
2023-02-05T19:11:49.625Z,48.85
2023-02-05T19:14:18.948Z,56.85
2023-02-05T19:16:47.331Z,54.85
2023-02-05T19:19:16.371Z,59.92
2023-02-05T19:21:45.101Z,56.30
2023-02-05T19:24:14.386Z,47.42
2023-02-05T19:26:43.589Z,50.63
2023-02-05T19:29:15.505Z,50.95
2023-02-05T19:31:43.957Z,54.63
2023-02-05T19:34:12.183Z,50.88
2023-02-05T19:36:40.474Z,53.83
2023-02-05T19:39:10.056Z,55.38
2023-02-05T19:41:38.377Z,55.60
2023-02-05T19:44:07.717Z,54.63
2023-02-05T19:46:38.333Z,55.22
2023-02-05T19:49:07.376Z,65.70
2023-02-05T19:51:35.516Z,58.92
2023-02-05T19:54:04.294Z,60.53
2023-02-05T19:56:35.737Z,57.03
2023-02-05T19:59:04.118Z,60.38
2023-02-05T20:01:33.581Z,60.70
2023-02-05T20:04:08.071Z,63.63
2023-02-05T20:06:36.352Z,63.95
2023-02-05T20:09:05.879Z,61.30
2023-02-05T20:11:34.037Z,62.85
2023-02-05T20:14:02.251Z,64.47
2023-02-05T20:16:30.592Z,62.28
2023-02-05T20:18:59.724Z,63.33
2023-02-05T20:21:30.005Z,65.15
2023-02-05T20:23:58.264Z,63.83
2023-02-05T20:26:26.620Z,64.82
2023-02-05T20:29:13.132Z,63.83
2023-02-05T20:31:43.560Z,62.58
2023-02-05T20:34:18.184Z,67.95
2023-02-05T20:36:48.425Z,64.80
2023-02-05T20:39:18.035Z,64.00
2023-02-05T20:41:46.497Z,66.68
2023-02-05T20:44:14.617Z,61.72
2023-02-05T20:46:42.892Z,63.70
2023-02-05T20:49:11.052Z,66.00
2023-02-05T20:51:39.330Z,62.33
2023-02-05T20:54:09.337Z,64.15
2023-02-05T20:56:37.604Z,63.85
2023-02-05T20:59:07.134Z,62.58
2023-02-05T21:01:36.563Z,62.55
2023-02-05T21:04:05.416Z,60.20
2023-02-05T21:06:35.136Z,58.10
2023-02-05T21:09:03.494Z,60.53
2023-02-05T21:11:33.108Z,60.05
2023-02-05T21:14:03.467Z,59.47
2023-02-05T21:16:32.299Z,57.45
2023-02-05T21:19:00.490Z,55.70
2023-02-05T21:21:29.964Z,57.95
2023-02-05T21:23:59.130Z,55.42
2023-02-05T21:26:28.169Z,54.15
2023-02-05T21:28:58.904Z,54.72
2023-02-05T21:31:33.756Z,52.15
2023-02-05T21:34:02.283Z,53.97
2023-02-05T21:36:30.609Z,52.25
2023-02-05T21:38:58.825Z,53.03
2023-02-05T21:41:26.968Z,51.15
2023-02-05T21:43:57.558Z,50.58
2023-02-05T21:46:26.268Z,52.17
2023-02-05T21:48:55.936Z,47.38
2023-02-05T21:51:26.596Z,46.60
2023-02-05T21:53:57.319Z,47.00
2023-02-05T21:56:25.985Z,48.60
2023-02-05T21:58:54.254Z,44.90
2023-02-05T22:01:24.628Z,47.25
2023-02-05T22:03:53.837Z,47.33
2023-02-05T22:06:23.057Z,44.08
2023-02-05T22:08:51.414Z,45.47
2023-02-05T22:11:20.150Z,46.22
2023-02-05T22:13:49.361Z,44.70
2023-02-05T22:16:18.572Z,44.10
2023-02-05T22:18:48.249Z,42.10
2023-02-05T22:21:17.890Z,41.70
2023-02-05T22:23:48.991Z,41.40
2023-02-05T22:26:17.811Z,40.35
2023-02-05T22:28:46.265Z,41.78
2023-02-05T22:31:15.931Z,42.38
2023-02-05T22:33:45.154Z,40.80
2023-02-05T22:36:19.083Z,41.97
2023-02-05T22:38:47.437Z,39.85
2023-02-05T22:41:16.812Z,39.22
2023-02-05T22:43:44.996Z,40.95
2023-02-05T22:46:14.272Z,39.58
2023-02-05T22:48:43.280Z,40.05
2023-02-05T22:51:13.109Z,39.05
2023-02-05T22:53:42.779Z,37.70
2023-02-05T22:56:12.802Z,37.63
2023-02-05T22:58:42.096Z,37.58
2023-02-05T23:01:10.650Z,33.78
2023-02-05T23:03:39.165Z,35.40
2023-02-05T23:06:11.485Z,35.10
2023-02-05T23:08:39.806Z,36.03
2023-02-05T23:11:10.708Z,35.00
2023-02-05T23:13:38.908Z,35.85
2023-02-05T23:16:08.837Z,34.97
2023-02-05T23:18:37.237Z,35.70
2023-02-05T23:21:08.629Z,32.55
2023-02-05T23:23:36.865Z,34.30
2023-02-05T23:26:11.105Z,34.30
2023-02-05T23:28:39.444Z,32.33
2023-02-05T23:31:07.875Z,33.50
2023-02-05T23:33:36.253Z,32.60
2023-02-05T23:36:05.054Z,32.22
2023-02-05T23:38:33.246Z,31.65
2023-02-05T23:41:01.553Z,32.15
2023-02-05T23:43:32.603Z,32.05
2023-02-05T23:46:00.966Z,29.35
2023-02-05T23:48:29.226Z,30.15
2023-02-05T23:50:59.051Z,28.67
2023-02-05T23:53:27.404Z,32.88
2023-02-05T23:55:55.699Z,29.88
2023-02-05T23:58:26.150Z,30.35
